Wyanet, Illinois
Current Conditions -  °F | °C
As of 3:15 PM on Saturday 20 Dec 2014 (Local Time) from KVYS Reporting Station
Overcast Overcast  
Wind Chill: 28°   Ceiling: 3300
Heat Index: 34°   Visibility: 10mi
Dew Point: 28°   Wind: 7mph
Humidity: 78%   Direction: 180°S
Pressure: 30.24"   Gusts: NA
Location:  41.37°N, 89.58°W
Report Text: KVYS 202115Z AUTO 18006KT 10SM OVC033 01/M02 A3024 RMK AO2 T00131021
Loading
Personal Weather Stations






























Interactive Weather Map New forecast layout! Learn more

10-Day Weather Forecast

Advertisements
Track Severe Weather on mobile